Time;durP1;ratioP1;P1;durP2;ratioP2;P2;SDS_P1;SDS_P2;PMS_P1;PMS_P2;Temp;Humidity;BMP_temperature;BMP_pressure;BME280_temperature;BME280_humidity;BME280_pressure;Samples;Min_cycle;Max_cycle;Signal;HPM_P1;HPM_P2
2022/12/10 00:01:52;;;;;;;30.60;15.00;;;;;;;5.56;100.00;100159.89;105204;1270;61050;-74
2022/12/10 00:04:21;;;;;;;31.30;14.40;;;;;;;5.64;100.00;100163.55;105415;1271;70389;-78
2022/12/10 00:06:50;;;;;;;28.30;13.50;;;;;;;5.72;100.00;100167.70;105321;1272;74083;-79
2022/12/10 00:09:20;;;;;;;33.30;14.30;;;;;;;5.84;100.00;100169.21;105382;1279;62995;-76
2022/12/10 00:11:49;;;;;;;31.20;14.90;;;;;;;5.87;100.00;100161.48;105446;1270;61747;-79
2022/12/10 00:14:18;;;;;;;30.90;14.40;;;;;;;5.92;100.00;100160.96;105490;1270;72753;-79
2022/12/10 00:16:47;;;;;;;26.50;13.50;;;;;;;5.98;100.00;100158.00;105199;1278;61487;-80
2022/12/10 00:19:16;;;;;;;27.90;13.80;;;;;;;5.95;100.00;100153.23;105280;1274;59221;-81
2022/12/10 00:21:45;;;;;;;28.80;14.20;;;;;;;5.97;100.00;100149.31;105320;1273;62557;-81
2022/12/10 00:24:14;;;;;;;26.80;13.60;;;;;;;6.00;100.00;100145.83;105413;1278;58902;-79
2022/12/10 00:26:45;;;;;;;28.90;14.20;;;;;;;6.01;100.00;100143.48;105404;1279;57521;-79
2022/12/10 00:29:14;;;;;;;30.90;14.00;;;;;;;6.01;100.00;100139.02;105286;1279;62938;-79
2022/12/10 00:31:44;;;;;;;27.10;13.30;;;;;;;6.00;100.00;100145.45;105346;1273;60894;-76
2022/12/10 00:34:13;;;;;;;28.20;13.20;;;;;;;6.04;100.00;100143.14;105205;1281;59160;-76
2022/12/10 00:36:46;;;;;;;28.80;14.40;;;;;;;6.01;100.00;100135.58;105422;1267;62230;-74
2022/12/10 00:39:20;;;;;;;28.90;14.00;;;;;;;5.95;100.00;100130.37;105355;1279;61960;-76
2022/12/10 00:41:49;;;;;;;27.00;13.50;;;;;;;5.94;100.00;100123.72;105273;1274;60815;-78
2022/12/10 00:44:18;;;;;;;27.20;13.30;;;;;;;5.81;100.00;100117.71;105287;1270;73040;-76
2022/12/10 00:46:47;;;;;;;30.30;14.20;;;;;;;5.79;100.00;100120.81;105347;1275;62065;-75
2022/12/10 00:49:16;;;;;;;27.20;13.20;;;;;;;5.77;100.00;100121.61;105402;1276;59475;-78
2022/12/10 00:51:45;;;;;;;28.20;12.50;;;;;;;5.75;100.00;100115.73;105406;1266;63516;-78
2022/12/10 00:54:14;;;;;;;36.30;15.30;;;;;;;5.73;100.00;100110.27;105415;1280;57498;-79
2022/12/10 00:56:43;;;;;;;27.20;13.90;;;;;;;5.75;100.00;100105.02;105344;1271;59754;-79
2022/12/10 00:59:12;;;;;;;28.50;13.80;;;;;;;5.78;100.00;100102.92;105430;1267;71369;-77
2022/12/10 01:01:42;;;;;;;27.40;13.80;;;;;;;5.80;100.00;100100.73;105288;1280;71796;-77
2022/12/10 01:04:17;;;;;;;27.20;13.50;;;;;;;5.80;100.00;100096.23;105298;1268;60212;-76
2022/12/10 01:06:50;;;;;;;30.60;13.50;;;;;;;5.84;100.00;100098.73;105073;1276;62437;-79
2022/12/10 01:09:23;;;;;;;30.60;13.60;;;;;;;5.84;100.00;100100.30;105139;1277;58948;-73
2022/12/10 01:11:57;;;;;;;29.80;12.50;;;;;;;5.82;100.00;100096.41;105117;1279;57425;-74
2022/12/10 01:14:31;;;;;;;28.70;13.00;;;;;;;5.76;100.00;100093.71;105156;1264;73458;-74
2022/12/10 01:17:04;;;;;;;29.20;13.70;;;;;;;5.76;100.00;100087.46;105046;1269;61136;-74
2022/12/10 01:19:34;;;;;;;30.40;12.90;;;;;;;5.76;100.00;100082.14;105067;1270;59997;-73
2022/12/10 01:22:04;;;;;;;27.60;12.90;;;;;;;5.75;100.00;100076.81;105093;1270;62794;-73
2022/12/10 01:24:34;;;;;;;32.30;14.80;;;;;;;5.84;100.00;100076.27;105102;1276;61106;-74
2022/12/10 01:27:03;;;;;;;34.70;14.50;;;;;;;5.90;100.00;100074.20;105095;1275;60439;-76
2022/12/10 01:29:32;;;;;;;28.20;13.80;;;;;;;5.90;100.00;100069.84;105141;1271;62006;-75
2022/12/10 01:32:01;;;;;;;29.40;13.70;;;;;;;5.98;100.00;100064.70;105238;1264;71225;-77
2022/12/10 01:34:30;;;;;;;32.00;14.10;;;;;;;5.96;100.00;100067.21;105215;1269;59711;-75
2022/12/10 01:36:59;;;;;;;30.00;13.70;;;;;;;5.99;100.00;100068.39;105163;1271;63336;-75
2022/12/10 01:39:28;;;;;;;30.00;13.90;;;;;;;6.01;100.00;100058.11;105201;1276;59085;-75
2022/12/10 01:42:00;;;;;;;37.50;14.20;;;;;;;5.98;100.00;100054.34;105384;1266;58733;-76
2022/12/10 01:44:29;;;;;;;30.80;13.50;;;;;;;5.94;100.00;100050.10;105396;1274;72684;-76
2022/12/10 01:47:02;;;;;;;31.50;13.50;;;;;;;5.90;100.00;100038.38;105282;1266;71089;-80
2022/12/10 01:49:39;;;;;;;31.10;15.00;;;;;;;5.88;100.00;100036.80;105251;1274;68374;-81
2022/12/10 01:52:11;;;;;;;26.10;13.20;;;;;;;5.89;100.00;100031.34;105173;1277;62442;-80
2022/12/10 01:54:44;;;;;;;30.00;14.70;;;;;;;5.96;100.00;100019.15;105259;1274;62962;-79
2022/12/10 01:57:18;;;;;;;;;;;;;;;5.90;100.00;100012.98;105266;1270;58909;-78
2022/12/10 01:59:53;;;;;;;29.90;14.30;;;;;;;5.86;100.00;100005.26;105172;1273;62118;-80
2022/12/10 02:02:55;;;;;;;32.10;15.00;;;;;;;5.85;100.00;100000.86;105330;1268;60891;-78
2022/12/10 02:05:59;;;;;;;27.00;12.70;;;;;;;5.77;100.00;99998.61;105375;1278;69628;-79
2022/12/10 02:09:02;;;;;;;29.30;13.20;;;;;;;5.71;100.00;99998.68;105425;1274;72376;-75
2022/12/10 02:11:40;;;;;;;34.60;15.50;;;;;;;5.67;100.00;99998.02;105416;1270;62220;-79
2022/12/10 02:14:52;;;;;;;34.10;14.80;;;;;;;5.62;100.00;100002.87;105390;1269;60816;-77
2022/12/10 02:17:48;;;;;;;29.10;14.00;;;;;;;5.58;100.00;99993.06;105264;1273;74743;-76
2022/12/10 02:20:31;;;;;;;27.40;13.20;;;;;;;5.59;100.00;99994.05;105385;1267;72050;-78
2022/12/10 02:23:08;;;;;;;32.10;14.40;;;;;;;5.58;100.00;99987.51;105445;1275;69130;-77
2022/12/10 02:25:58;;;;;;;25.30;13.00;;;;;;;5.57;100.00;99983.42;105308;1265;63978;-80
2022/12/10 02:28:55;;;;;;;30.70;14.70;;;;;;;5.56;100.00;99988.89;105213;1270;61633;-77
2022/12/10 02:31:30;;;;;;;28.00;14.30;;;;;;;5.58;100.00;99992.54;105399;1268;59071;-76
2022/12/10 02:34:04;;;;;;;28.40;13.90;;;;;;;5.62;100.00;99986.41;105268;1267;73448;-77
2022/12/10 02:36:38;;;;;;;25.00;13.30;;;;;;;5.60;100.00;99986.07;105275;1277;72182;-78
2022/12/10 02:39:13;;;;;;;27.20;13.70;;;;;;;5.55;100.00;99977.88;105151;1273;61153;-77
2022/12/10 02:41:52;;;;;;;25.40;12.80;;;;;;;5.52;100.00;99988.62;105184;1268;63739;-77
2022/12/10 02:44:24;;;;;;;29.10;14.50;;;;;;;5.48;100.00;99988.16;105282;1273;62107;-78
2022/12/10 02:46:58;;;;;;;31.80;15.10;;;;;;;5.47;100.00;99984.41;105400;1268;61086;-77
2022/12/10 02:49:33;;;;;;;30.30;15.70;;;;;;;5.57;100.00;99972.71;105444;1264;73266;-78
2022/12/10 02:52:13;;;;;;;31.50;14.30;;;;;;;5.58;100.00;99969.86;105421;1277;63200;-78
2022/12/10 02:54:49;;;;;;;29.40;14.90;;;;;;;5.66;100.00;99977.70;105455;1263;69637;-79
2022/12/10 02:58:01;;;;;;;30.00;14.50;;;;;;;5.72;100.00;99974.23;105299;1276;73221;-76
2022/12/10 03:00:38;;;;;;;25.70;14.30;;;;;;;5.81;100.00;99973.13;105351;1273;58842;-74
2022/12/10 03:03:18;;;;;;;26.70;14.20;;;;;;;5.85;100.00;99970.63;105176;1269;60350;-76
2022/12/10 03:06:34;;;;;;;26.60;13.80;;;;;;;5.79;100.00;99972.70;105400;1267;72448;-75
2022/12/10 03:09:24;;;;;;;29.70;15.80;;;;;;;5.87;100.00;99968.94;105345;1273;61248;-75
2022/12/10 03:12:01;;;;;;;30.10;14.60;;;;;;;5.89;100.00;99958.61;105563;1266;70295;-74
2022/12/10 03:14:32;;;;;;;30.70;14.20;;;;;;;5.91;100.00;99957.64;105530;1270;74128;-75
2022/12/10 03:17:04;;;;;;;24.80;13.40;;;;;;;5.86;100.00;99953.64;105501;1278;63188;-76
2022/12/10 03:19:42;;;;;;;31.00;14.10;;;;;;;5.88;100.00;99950.36;105523;1275;60926;-75
2022/12/10 03:22:15;;;;;;;24.70;13.60;;;;;;;5.92;100.00;99944.79;105410;1278;71628;-74
2022/12/10 03:24:44;;;;;;;33.00;15.20;;;;;;;5.93;100.00;99941.63;105592;1270;61078;-75
2022/12/10 03:27:18;;;;;;;27.50;14.20;;;;;;;5.87;100.00;99947.50;105502;1260;70433;-75
2022/12/10 03:29:59;;;;;;;26.80;13.50;;;;;;;5.83;100.00;99941.02;105502;1264;74177;-78
2022/12/10 03:32:29;;;;;;;30.30;14.50;;;;;;;5.78;100.00;99933.38;105620;1274;63589;-78
2022/12/10 03:35:01;;;;;;;29.80;15.00;;;;;;;5.69;100.00;99928.97;105592;1275;59032;-74
2022/12/10 03:37:31;;;;;;;32.80;16.40;;;;;;;5.73;100.00;99924.23;105522;1267;72592;-74
2022/12/10 03:40:00;;;;;;;30.50;14.90;;;;;;;5.76;100.00;99916.95;105342;1264;71479;-73
2022/12/10 03:42:29;;;;;;;26.50;14.80;;;;;;;5.76;100.00;99916.58;105409;1267;60329;-74
2022/12/10 03:44:58;;;;;;;30.10;15.70;;;;;;;5.73;100.00;99910.22;105518;1275;63225;-73
2022/12/10 03:47:27;;;;;;;26.90;14.80;;;;;;;5.74;100.00;99906.02;105482;1267;58850;-74
2022/12/10 03:49:56;;;;;;;29.70;14.50;;;;;;;5.72;100.00;99897.71;105542;1269;59168;-73
2022/12/10 03:52:25;;;;;;;27.60;15.00;;;;;;;5.64;100.00;99901.17;105560;1266;62941;-73
2022/12/10 03:54:54;;;;;;;30.00;15.30;;;;;;;5.55;100.00;99895.30;105279;1274;60990;-74
2022/12/10 03:57:23;;;;;;;29.90;14.70;;;;;;;5.47;100.00;99885.80;105439;1276;69884;-74
2022/12/10 03:59:52;;;;;;;33.90;16.20;;;;;;;5.51;100.00;99888.65;105521;1275;63026;-75
2022/12/10 04:02:21;;;;;;;31.20;17.20;;;;;;;5.50;100.00;99884.89;105582;1275;63335;-74
2022/12/10 04:04:50;;;;;;;35.50;17.60;;;;;;;5.47;100.00;99884.23;105672;1266;61967;-77
2022/12/10 04:07:19;;;;;;;31.80;16.60;;;;;;;5.49;100.00;99889.62;105689;1275;73237;-79
2022/12/10 04:09:48;;;;;;;38.40;18.60;;;;;;;5.43;100.00;99885.04;105609;1266;71985;-79
2022/12/10 04:12:17;;;;;;;34.20;17.80;;;;;;;5.44;100.00;99880.15;105499;1269;60398;-78
2022/12/10 04:17:34;;;;;;;35.10;18.10;;;;;;;5.43;100.00;99875.17;105640;1267;60470;-78
2022/12/10 04:20:03;;;;;;;33.00;18.10;;;;;;;5.42;100.00;99882.71;105599;1270;60332;-77
2022/12/10 04:28:06;;;;;;;41.60;20.50;;;;;;;5.48;100.00;99883.51;105657;1266;59897;-78
2022/12/10 04:30:35;;;;;;;39.90;18.90;;;;;;;5.45;100.00;99883.02;105623;1267;63195;-77
2022/12/10 04:33:04;;;;;;;32.40;18.20;;;;;;;5.48;100.00;99884.55;105574;1267;59043;-77
2022/12/10 04:35:33;;;;;;;34.00;18.50;;;;;;;5.42;100.00;99888.41;105659;1267;58997;-77
2022/12/10 04:38:02;;;;;;;36.50;18.40;;;;;;;5.44;100.00;99895.50;105538;1275;74091;-77
2022/12/10 04:40:30;;;;;;;34.50;18.30;;;;;;;5.42;100.00;99893.38;105576;1275;72456;-76
2022/12/10 04:42:59;;;;;;;31.70;17.30;;;;;;;5.37;100.00;99888.91;105564;1267;70810;-76
2022/12/10 04:45:28;;;;;;;36.90;18.40;;;;;;;5.48;100.00;99889.19;105542;1270;62153;-80
2022/12/10 04:47:57;;;;;;;30.80;16.10;;;;;;;5.46;100.00;99890.36;105612;1267;59062;-77
2022/12/10 04:50:26;;;;;;;31.60;17.10;;;;;;;5.43;100.00;99895.24;105668;1275;60348;-79
2022/12/10 04:52:54;;;;;;;33.30;17.00;;;;;;;5.38;100.00;99889.83;105572;1267;73576;-73
2022/12/10 04:55:23;;;;;;;36.00;16.70;;;;;;;5.42;100.00;99893.41;105577;1266;62994;-74
2022/12/10 04:57:52;;;;;;;52.60;24.80;;;;;;;5.37;100.00;99894.05;105403;1269;59745;-75
2022/12/10 05:00:21;;;;;;;35.60;19.50;;;;;;;5.42;100.00;99897.02;105516;1262;62433;-76
2022/12/10 05:02:50;;;;;;;40.40;22.30;;;;;;;5.39;100.00;99902.37;105475;1267;59038;-75
2022/12/10 05:05:19;;;;;;;34.30;17.50;;;;;;;5.40;100.00;99901.46;105586;1267;59435;-77
2022/12/10 05:07:47;;;;;;;31.70;18.30;;;;;;;5.42;100.00;99896.86;105438;1267;74015;-76
2022/12/10 05:10:17;;;;;;;35.00;17.50;;;;;;;5.43;100.00;99896.27;105518;1275;72375;-75
2022/12/10 05:12:45;;;;;;;37.90;17.00;;;;;;;5.43;100.00;99896.78;105487;1267;69752;-74
2022/12/10 05:15:14;;;;;;;33.00;17.20;;;;;;;5.45;100.00;99893.73;105532;1275;63200;-75
2022/12/10 05:17:43;;;;;;;39.60;17.60;;;;;;;5.47;100.00;99892.89;105414;1276;59120;-78
2022/12/10 05:20:12;;;;;;;34.80;18.50;;;;;;;5.47;100.00;99891.86;105589;1275;58982;-79
2022/12/10 05:25:29;;;;;;;37.90;18.50;;;;;;;5.44;100.00;99883.39;105715;1270;69779;-74
2022/12/10 05:27:58;;;;;;;34.70;18.00;;;;;;;5.54;100.00;99885.02;105526;1266;70202;-76
2022/12/10 05:30:26;;;;;;;35.40;19.00;;;;;;;5.50;100.00;99884.39;105589;1266;73447;-71
2022/12/10 05:32:55;;;;;;;42.10;18.30;;;;;;;5.47;100.00;99889.95;105505;1275;58381;-73
2022/12/10 05:35:24;;;;;;;44.90;23.00;;;;;;;5.62;100.00;99886.60;105526;1275;60626;-74
2022/12/10 05:37:53;;;;;;;33.50;17.80;;;;;;;5.64;100.00;99888.39;105416;1270;74268;-74
2022/12/10 05:40:22;;;;;;;37.10;22.20;;;;;;;5.58;100.00;99886.65;105545;1262;72833;-73
2022/12/10 05:42:51;;;;;;;39.00;18.90;;;;;;;5.64;100.00;99882.81;105553;1270;59955;-74
2022/12/10 05:45:20;;;;;;;32.40;16.40;;;;;;;5.69;100.00;99876.95;105509;1270;62676;-72
2022/12/10 05:47:49;;;;;;;32.00;17.50;;;;;;;5.69;100.00;99872.50;105502;1275;59005;-73
2022/12/10 05:50:18;;;;;;;35.60;17.60;;;;;;;5.68;100.00;99872.39;105526;1267;59048;-73
2022/12/10 05:52:51;;;;;;;28.90;16.30;;;;;;;5.80;100.00;99870.90;105523;1264;63296;-74
2022/12/10 05:55:21;;;;;;;28.40;16.50;;;;;;;5.84;100.00;99869.24;105601;1260;71246;-76
2022/12/10 05:57:50;;;;;;;30.00;15.10;;;;;;;5.88;100.00;99869.52;105418;1263;60345;-77
2022/12/10 06:00:21;;;;;;;28.00;15.30;;;;;;;5.90;100.00;99870.91;105504;1274;63234;-74
2022/12/10 06:02:51;;;;;;;29.40;14.90;;;;;;;5.93;100.00;99869.05;105547;1266;63508;-76
2022/12/10 06:05:20;;;;;;;25.30;14.30;;;;;;;6.02;100.00;99872.58;105569;1270;61342;-77
2022/12/10 06:07:49;;;;;;;28.30;15.80;;;;;;;6.02;100.00;99868.80;105413;1259;72419;-78
2022/12/10 06:10:18;;;;;;;32.80;16.00;;;;;;;6.05;100.00;99863.39;105499;1275;61394;-77
2022/12/10 06:12:47;;;;;;;35.10;14.80;;;;;;;6.10;100.00;99856.09;105459;1266;59992;-76
2022/12/10 06:15:16;;;;;;;26.60;14.00;;;;;;;6.15;100.00;99853.38;105412;1270;71994;-76
2022/12/10 06:17:45;;;;;;;26.10;13.70;;;;;;;6.23;100.00;99853.91;105308;1266;61992;-76
2022/12/10 06:20:13;;;;;;;24.10;13.90;;;;;;;6.29;100.00;99852.61;105284;1275;60191;-74
2022/12/10 06:22:42;;;;;;;26.10;14.60;;;;;;;6.36;100.00;99855.91;105420;1270;62575;-77
2022/12/10 06:25:11;;;;;;;26.60;14.50;;;;;;;6.41;100.00;99862.69;105394;1260;60628;-75
2022/12/10 06:27:40;;;;;;;23.70;14.20;;;;;;;6.47;100.00;99859.67;105466;1270;67797;-76
2022/12/10 06:30:10;;;;;;;24.20;14.00;;;;;;;6.45;100.00;99860.52;105450;1270;71321;-76
2022/12/10 06:32:39;;;;;;;30.60;15.20;;;;;;;6.51;100.00;99863.21;105523;1270;58814;-76
2022/12/10 06:35:10;;;;;;;25.80;14.40;;;;;;;6.54;100.00;99865.09;105624;1270;59103;-75
2022/12/10 06:37:39;;;;;;;24.90;12.90;;;;;;;6.56;100.00;99860.42;105667;1267;63290;-75
2022/12/10 06:40:08;;;;;;;26.20;14.10;;;;;;;6.63;100.00;99862.90;105596;1266;70216;-75
2022/12/10 06:42:38;;;;;;;22.10;13.80;;;;;;;6.72;100.00;99867.27;105545;1270;70262;-76
2022/12/10 06:45:09;;;;;;;26.60;13.80;;;;;;;6.76;100.00;99859.73;105528;1275;74060;-73
2022/12/10 06:47:38;;;;;;;33.40;18.60;;;;;;;6.77;100.00;99858.46;105357;1274;63174;-74
2022/12/10 06:50:10;;;;;;;32.50;16.90;;;;;;;6.74;100.00;99861.41;105423;1275;60489;-74
2022/12/10 06:52:40;;;;;;;38.60;20.80;;;;;;;6.73;100.00;99860.98;105622;1267;63771;-76
2022/12/10 06:55:09;;;;;;;36.10;21.90;;;;;;;6.72;100.00;99861.23;105756;1267;61596;-77
2022/12/10 06:57:38;;;;;;;37.00;19.30;;;;;;;6.72;100.00;99856.93;105651;1270;59265;-75
2022/12/10 07:00:09;;;;;;;34.20;20.50;;;;;;;6.73;100.00;99861.50;105562;1268;71230;-75
2022/12/10 07:02:39;;;;;;;38.10;20.70;;;;;;;6.68;100.00;99861.01;105493;1267;59277;-74
2022/12/10 07:05:08;;;;;;;36.90;19.30;;;;;;;6.70;100.00;99860.29;105664;1267;57423;-78
2022/12/10 07:07:37;;;;;;;36.40;19.10;;;;;;;6.74;100.00;99856.58;105647;1263;62845;-75
2022/12/10 07:10:06;;;;;;;39.40;20.60;;;;;;;6.75;100.00;99855.29;105593;1266;71226;-74
2022/12/10 07:12:36;;;;;;;38.70;18.70;;;;;;;6.78;100.00;99850.74;105689;1270;70814;-75
2022/12/10 07:15:06;;;;;;;29.60;16.20;;;;;;;6.60;100.00;99814.35;105754;1267;73885;-78
2022/12/10 07:17:35;;;;;;;30.90;16.90;;;;;;;6.63;100.00;99808.58;105630;1262;57490;-75
2022/12/10 07:20:05;;;;;;;30.40;17.90;;;;;;;6.86;100.00;99842.21;104567;1266;1386235;-74
2022/12/10 07:22:34;;;;;;;29.80;17.20;;;;;;;6.91;100.00;99836.91;105690;1267;62573;-75
2022/12/10 07:25:03;;;;;;;26.20;15.20;;;;;;;6.91;100.00;99838.92;105591;1275;61462;-77
2022/12/10 07:27:32;;;;;;;32.70;20.30;;;;;;;6.90;100.00;99837.61;105620;1270;59968;-74
2022/12/10 07:30:01;;;;;;;41.50;29.50;;;;;;;6.98;100.00;99834.11;105669;1271;73005;-76
2022/12/10 07:32:30;;;;;;;25.90;15.50;;;;;;;7.10;100.00;99834.13;105657;1270;62217;-75
2022/12/10 07:34:59;;;;;;;28.60;17.00;;;;;;;7.11;100.00;99843.90;105664;1270;61408;-75
2022/12/10 07:37:27;;;;;;;29.70;17.90;;;;;;;7.11;100.00;99838.36;105643;1267;73807;-75
2022/12/10 07:39:56;;;;;;;32.20;18.10;;;;;;;7.11;100.00;99831.42;105602;1274;61541;-75
2022/12/10 07:42:33;;;;;;;45.60;25.80;;;;;;;7.22;100.00;99829.98;105527;1267;60350;-78
2022/12/10 07:45:04;;;;;;;30.20;16.30;;;;;;;7.37;100.00;99828.53;105574;1261;73145;-74
2022/12/10 07:47:38;;;;;;;29.50;15.90;;;;;;;7.43;100.00;99834.30;105621;1270;60678;-75
2022/12/10 07:50:08;;;;;;;41.60;24.00;;;;;;;7.41;100.00;99838.08;105577;1275;60312;-77
2022/12/10 07:52:37;;;;;;;62.20;39.30;;;;;;;7.46;100.00;99831.15;105594;1270;73235;-83
2022/12/10 07:55:06;;;;;;;32.30;18.00;;;;;;;7.56;100.00;99824.89;105481;1270;71649;-80
2022/12/10 07:57:35;;;;;;;30.20;17.30;;;;;;;7.57;100.00;99823.45;105791;1265;60273;-78
2022/12/10 08:00:05;;;;;;;93.80;51.70;;;;;;;7.56;100.00;99816.22;105643;1267;63321;-76
2022/12/10 08:02:39;;;;;;;30.70;16.20;;;;;;;7.60;100.00;99818.52;105445;1267;61076;-73
2022/12/10 08:05:09;;;;;;;47.80;27.20;;;;;;;7.70;100.00;99816.39;105507;1257;62231;-75
2022/12/10 08:07:38;;;;;;;55.70;26.50;;;;;;;7.73;100.00;99818.80;105420;1275;71932;-72
2022/12/10 08:10:07;;;;;;;66.90;32.40;;;;;;;7.79;100.00;99814.56;105443;1275;62217;-73
2022/12/10 08:12:37;;;;;;;45.10;22.60;;;;;;;7.78;100.00;99806.42;105542;1270;59229;-74
2022/12/10 08:15:07;;;;;;;264.30;99.70;;;;;;;7.88;100.00;99798.21;105618;1260;62740;-74
2022/12/10 08:17:36;;;;;;;74.90;30.00;;;;;;;7.94;100.00;99793.61;105505;1267;59132;-75
2022/12/10 08:20:06;;;;;;;258.60;92.10;;;;;;;8.03;100.00;99795.16;105533;1270;58877;-74
2022/12/10 08:22:36;;;;;;;40.20;19.00;;;;;;;8.15;100.00;99798.11;105468;1260;72920;-76
2022/12/10 08:25:06;;;;;;;40.50;19.30;;;;;;;8.19;100.00;99797.58;105519;1269;61581;-73
2022/12/10 08:27:35;;;;;;;90.70;37.00;;;;;;;8.21;100.00;99795.34;105581;1270;59140;-73
2022/12/10 08:30:05;;;;;;;55.50;26.50;;;;;;;8.24;100.00;99793.60;105505;1265;72060;-74
2022/12/10 08:32:35;;;;;;;125.30;46.80;;;;;;;8.12;100.00;99795.17;105694;1267;62850;-75
2022/12/10 08:35:04;;;;;;;126.60;45.60;;;;;;;8.19;100.00;99792.05;105706;1256;59024;-75
2022/12/10 08:37:33;;;;;;;43.20;19.20;;;;;;;8.26;100.00;99793.94;105708;1260;62362;-74
2022/12/10 08:40:03;;;;;;;51.60;24.50;;;;;;;8.20;100.00;99795.94;105658;1267;61613;-74
2022/12/10 08:42:32;;;;;;;110.20;39.60;;;;;;;8.29;100.00;99793.22;105520;1262;71049;-74
2022/12/10 08:45:01;;;;;;;118.90;40.20;;;;;;;8.37;100.00;99789.67;105472;1263;73443;-73
2022/12/10 08:47:30;;;;;;;67.90;24.70;;;;;;;8.46;100.00;99787.54;105450;1275;58956;-74
2022/12/10 08:50:00;;;;;;;24.20;15.10;;;;;;;8.52;100.00;99785.56;105454;1263;60397;-72
2022/12/10 08:52:30;;;;;;;26.30;15.30;;;;;;;8.56;100.00;99791.09;105575;1275;73532;-77
2022/12/10 08:54:59;;;;;;;43.70;18.70;;;;;;;8.60;100.00;99789.94;105480;1275;72522;-75
2022/12/10 08:57:28;;;;;;;27.10;15.50;;;;;;;8.67;100.00;99789.34;105567;1273;59167;-73
2022/12/10 08:59:57;;;;;;;358.70;57.90;;;;;;;8.67;100.00;99788.87;105631;1261;64134;-73
2022/12/10 09:02:26;;;;;;;54.50;19.60;;;;;;;8.74;100.00;99780.98;105738;1262;62063;-77
2022/12/10 09:04:55;;;;;;;110.80;27.10;;;;;;;8.76;100.00;99776.30;105637;1268;61273;-75
2022/12/10 09:07:25;;;;;;;259.90;45.10;;;;;;;8.73;100.00;99776.04;105619;1261;72835;-74
2022/12/10 09:09:54;;;;;;;61.20;24.80;;;;;;;8.79;100.00;99772.98;105442;1268;70615;-77
2022/12/10 09:12:23;;;;;;;112.30;25.90;;;;;;;8.76;100.00;99773.52;105478;1263;70715;-73
2022/12/10 09:14:52;;;;;;;309.60;52.40;;;;;;;8.80;100.00;99779.86;105511;1273;72248;-75
2022/12/10 09:17:21;;;;;;;53.80;21.10;;;;;;;8.92;100.00;99783.52;105576;1261;62572;-76
2022/12/10 09:19:50;;;;;;;35.00;16.30;;;;;;;9.00;100.00;99788.50;105607;1270;59138;-76
2022/12/10 09:22:19;;;;;;;26.30;14.90;;;;;;;9.07;100.00;99786.70;105567;1263;62802;-75
2022/12/10 09:24:48;;;;;;;25.90;15.50;;;;;;;9.23;100.00;99773.58;105609;1258;70345;-76
2022/12/10 09:27:17;;;;;;;37.50;17.20;;;;;;;9.34;100.00;99780.84;105578;1263;70816;-77
2022/12/10 09:29:46;;;;;;;26.70;15.40;;;;;;;9.37;99.93;99780.63;105614;1266;65558;-76
2022/12/10 09:32:17;;;;;;;207.70;36.80;;;;;;;9.40;99.42;99775.34;105695;1266;62260;-84
2022/12/10 09:34:46;;;;;;;108.30;23.60;;;;;;;9.47;99.99;99775.27;105666;1270;59044;-81
2022/12/10 09:37:15;;;;;;;181.90;32.70;;;;;;;9.54;100.00;99771.36;105480;1275;62248;-75
2022/12/10 09:39:45;;;;;;;56.20;17.90;;;;;;;9.58;100.00;99770.53;105463;1269;71930;-77
2022/12/10 09:42:58;;;;;;;219.80;34.10;;;;;;;9.63;99.06;99764.36;105386;1260;70032;-78
2022/12/10 09:45:46;;;;;;;31.40;17.50;;;;;;;9.63;99.06;99758.62;104863;1275;63726;-77
2022/12/10 09:48:37;;;;;;;115.40;24.20;;;;;;;9.56;98.22;99750.35;105431;1275;57883;-76
2022/12/10 09:51:36;;;;;;;74.50;22.40;;;;;;;9.56;97.55;99747.23;105303;1263;60891;-73
2022/12/10 09:54:31;;;;;;;28.70;15.50;;;;;;;9.49;98.79;99748.00;105430;1273;74119;-75
2022/12/10 09:57:03;;;;;;;45.20;18.60;;;;;;;9.51;98.79;99743.13;105458;1260;61187;-73
2022/12/10 09:59:48;;;;;;;239.60;33.80;;;;;;;9.41;99.21;99741.34;105399;1267;59949;-74
2022/12/10 10:02:30;;;;;;;216.80;36.20;;;;;;;9.51;100.00;99737.17;105457;1267;72947;-74
2022/12/10 10:05:06;;;;;;;126.30;24.20;;;;;;;9.53;99.47;99728.73;105424;1267;63461;-75
2022/12/10 10:07:49;;;;;;;157.40;30.30;;;;;;;9.47;99.23;99724.55;105467;1267;59094;-78
2022/12/10 10:10:31;;;;;;;69.60;20.30;;;;;;;9.49;99.42;99723.69;105446;1275;72873;-78
2022/12/10 10:13:09;;;;;;;118.90;23.40;;;;;;;9.58;98.95;99721.67;105508;1268;70760;-77
2022/12/10 10:15:43;;;;;;;207.10;31.90;;;;;;;9.63;98.38;99723.52;105791;1262;70538;-80
2022/12/10 10:18:39;;;;;;;61.00;19.40;;;;;;;9.70;98.15;99724.52;105581;1265;73505;-87
2022/12/10 10:21:31;;;;;;;46.50;18.80;;;;;;;9.69;97.11;99726.11;106058;1263;59007;-83
2022/12/10 10:24:02;;;;;;;44.30;18.20;;;;;;;9.89;98.02;99731.27;106245;1272;59116;-84
2022/12/10 10:26:39;;;;;;;334.20;44.10;;;;;;;10.16;98.36;99734.67;106358;1266;72554;-86
2022/12/10 10:29:13;;;;;;;60.60;18.50;;;;;;;10.29;95.73;99729.39;106643;1269;60815;-88
2022/12/10 10:31:43;;;;;;;304.50;43.50;;;;;;;10.52;93.29;99722.52;106499;1266;69555;-84
2022/12/10 10:34:22;;;;;;;304.30;42.00;;;;;;;10.50;92.06;99719.90;106308;1265;72724;-85
2022/12/10 10:36:57;;;;;;;204.70;32.70;;;;;;;10.49;92.82;99718.77;106083;1275;62470;-83
2022/12/10 10:39:48;;;;;;;42.50;17.60;;;;;;;10.51;91.62;99710.89;105923;1271;58544;-80
2022/12/10 10:42:50;;;;;;;77.20;20.10;;;;;;;10.66;92.01;99710.14;107037;1265;72690;-84
2022/12/10 10:45:30;;;;;;;75.70;19.80;;;;;;;10.75;91.45;99711.08;106143;1267;61618;-71
2022/12/10 10:48:11;;;;;;;25.20;16.20;;;;;;;10.75;90.35;99708.32;105463;1267;59948;-74
2022/12/10 10:50:47;;;;;;;31.20;17.30;;;;;;;10.93;90.23;99707.89;105354;1266;73071;-74
2022/12/10 10:53:30;;;;;;;28.40;17.30;;;;;;;11.05;90.36;99708.61;105444;1266;58674;-74
2022/12/10 10:56:27;;;;;;;53.70;18.10;;;;;;;10.96;89.26;99706.81;105608;1266;57819;-74
2022/12/10 10:59:06;;;;;;;56.60;18.80;;;;;;;11.07;88.74;99704.39;106759;1270;62319;-85
2022/12/10 11:01:52;;;;;;;29.70;17.00;;;;;;;11.37;88.77;99701.50;106601;1266;71173;-85
2022/12/10 11:04:51;;;;;;;37.40;16.40;;;;;;;11.64;87.41;99703.38;106468;1267;70133;-84
2022/12/10 11:07:33;;;;;;;30.10;16.00;;;;;;;11.73;85.46;99701.31;106446;1265;71334;-85
2022/12/10 11:10:16;;;;;;;62.40;20.30;;;;;;;12.16;85.11;99694.85;106642;1266;60434;-84
2022/12/10 11:13:07;;;;;;;31.10;16.70;;;;;;;12.44;82.06;99689.15;106012;1266;59037;-84
2022/12/10 11:15:41;;;;;;;72.00;20.80;;;;;;;12.66;79.93;99677.45;106704;1262;74086;-83
2022/12/10 11:18:32;;;;;;;35.60;16.90;;;;;;;12.75;80.36;99672.49;106458;1275;61430;-84
2022/12/10 11:21:13;;;;;;;33.80;16.30;;;;;;;13.01;78.82;99666.88;107014;1263;59168;-83
2022/12/10 11:23:54;;;;;;;33.00;16.80;;;;;;;13.04;78.42;99662.32;106285;1261;62433;-83
2022/12/10 11:26:46;;;;;;;31.30;16.90;;;;;;;13.23;77.89;99661.17;106231;1266;59014;-83
2022/12/10 11:29:39;;;;;;;44.80;17.80;;;;;;;13.50;77.28;99669.95;106213;1269;60319;-82
2022/12/10 11:32:44;;;;;;;141.20;27.60;;;;;;;13.74;76.30;99676.29;106484;1261;73949;-86
2022/12/10 11:35:43;;;;;;;38.50;17.40;;;;;;;13.74;75.82;99678.23;106929;1269;60741;-85
2022/12/10 11:38:46;;;;;;;26.60;15.80;;;;;;;13.59;74.46;99672.28;107028;1266;59176;-85
2022/12/10 11:41:49;;;;;;;26.30;14.50;;;;;;;13.62;74.29;99672.29;106734;1265;73117;-86
2022/12/10 11:44:35;;;;;;;26.40;15.70;;;;;;;13.62;74.25;99667.70;107048;1265;58800;-82
2022/12/10 11:47:45;;;;;;;26.80;16.10;;;;;;;14.07;72.83;99663.44;106692;1267;58999;-85
2022/12/10 11:50:46;;;;;;;51.90;18.30;;;;;;;14.43;72.03;99664.49;106702;1265;63649;-86